Athens Ben Epps Airport Athens US
ICAO: KAHN
IATA: AHN
Category: Medium
Scheduled Services: Yes

Elevation: 808 ft
TransAlt. 18000 ft.

Airport Communications:
ATLANTA APP/DEP:127.5
ASOS:132.875
ATLANTA CNTR:127.5
CTAF:126.3
GND:121.8
MACON RDO:109.6
TWR:126.3
UNICOM:122.95

KAHN Zoom In..

If you have problems with the map follow the link
https://www.worldairports.se/pages/airport.php?
ICAO=KAHN

Runways:

(A) RW 02 length 3955 ft width 100 ft
---- / hdg 24

(B) RW 09 length 5522 ft width 100 ft
---- / hdg 91

(C) RW 20 length 3955 ft width 100 ft
---- / hdg 204

(D) RW 27 length 5522 ft width 100 ft
ILS 110.95 / hdg 271

Location; KAHN
Day. 20 / Time. 07.51 Zulu
* Altimeter: 30.22
* Temperature: -01° c. -30.2°f.
* Wind from: 330° Speed 04 kn.
Dewpoint: -08° c.
Visibility: 10 Statute Miles.
Clouds: Clear (automated report).

KAHN 200751Z AUTO 33004KT 10SM CLR M01/M08 A3022 RMK AO2 SLP238 T10061083 $


Wind From 330°
Speed 04 kn.

 
 
jpsmedia worldairports.se 2020   terms of use